Time;durP1;ratioP1;P1;durP2;ratioP2;P2;SDS_P1;SDS_P2;PMS_P1;PMS_P2;Temp;Humidity;BMP_temperature;BMP_pressure;BME280_temperature;BME280_humidity;BME280_pressure;Samples;Min_cycle;Max_cycle;Signal;HPM_P1;HPM_P2
2024/01/27 00:02:21;;;;;;;3.22;0.20;;;;;;;0.91;79.69;100740.50;4980335;28;20460;-75
2024/01/27 00:04:49;;;;;;;0.85;0.20;;;;;;;0.91;79.77;100745.66;4979200;28;20054;-73
2024/01/27 00:07:16;;;;;;;2.85;0.28;;;;;;;0.91;79.86;100750.81;4979953;28;20046;-74
2024/01/27 00:09:43;;;;;;;2.92;0.30;;;;;;;0.92;79.75;100756.81;4981453;28;20200;-74
2024/01/27 00:12:11;;;;;;;0.40;0.20;;;;;;;0.90;79.70;100755.91;4979343;28;20073;-73
2024/01/27 00:14:40;;;;;;;0.75;0.30;;;;;;;0.91;79.27;100763.69;4980340;28;20054;-74
2024/01/27 00:17:07;;;;;;;0.63;0.20;;;;;;;0.91;79.17;100768.84;4977330;28;20117;-73
2024/01/27 00:19:34;;;;;;;0.63;0.35;;;;;;;0.91;79.25;100770.56;4981873;28;20077;-73
2024/01/27 00:22:01;;;;;;;2.30;0.38;;;;;;;0.86;79.37;100761.88;4984407;28;20092;-74
2024/01/27 00:24:27;;;;;;;1.00;0.20;;;;;;;0.90;79.51;100779.97;4982781;28;20073;-74
2024/01/27 00:26:54;;;;;;;0.40;0.30;;;;;;;0.91;78.93;100786.00;4983058;28;20569;-73
2024/01/27 00:29:23;;;;;;;0.65;0.20;;;;;;;0.90;79.35;100785.09;4982617;28;20144;-73
2024/01/27 00:31:50;;;;;;;0.35;0.20;;;;;;;0.90;79.42;100787.69;4978799;28;20129;-74
2024/01/27 00:34:17;;;;;;;0.93;0.32;;;;;;;0.89;79.17;100791.13;4982410;28;20050;-74
2024/01/27 00:36:48;;;;;;;0.43;0.20;;;;;;;0.90;79.35;100792.84;4979395;28;20509;-73
2024/01/27 00:39:15;;;;;;;1.63;0.20;;;;;;;0.88;78.91;100785.94;4980618;28;20050;-74
2024/01/27 00:41:42;;;;;;;2.70;0.30;;;;;;;0.89;79.26;100795.41;4981459;28;20050;-73
2024/01/27 00:44:09;;;;;;;0.68;0.30;;;;;;;0.89;78.97;100798.84;4979460;28;20053;-74
2024/01/27 00:46:38;;;;;;;0.40;0.22;;;;;;;0.90;79.37;100810.88;4980523;28;20468;-74
2024/01/27 00:49:05;;;;;;;0.40;0.30;;;;;;;0.89;78.92;100814.28;4975547;28;20050;-73
2024/01/27 00:51:32;;;;;;;0.35;0.20;;;;;;;0.88;78.77;100822.88;4982677;28;20129;-76
2024/01/27 00:53:59;;;;;;;0.35;0.30;;;;;;;0.88;79.27;100822.88;4982965;28;20728;-73
2024/01/27 00:56:25;;;;;;;0.45;0.20;;;;;;;0.88;79.28;100822.88;4982289;28;20129;-73
2024/01/27 00:58:52;;;;;;;0.85;0.20;;;;;;;0.88;79.01;100827.13;4982216;28;20074;-73
2024/01/27 01:01:19;;;;;;;0.82;0.30;;;;;;;0.88;79.45;100833.19;4982487;28;20127;-74
2024/01/27 01:03:48;;;;;;;1.50;0.75;;;;;;;0.88;79.31;100843.47;4976709;28;20220;-74
2024/01/27 01:06:15;;;;;;;0.57;0.50;;;;;;;0.87;79.33;100852.03;4981318;28;20082;-74
2024/01/27 01:08:41;;;;;;;1.65;0.20;;;;;;;0.87;79.26;100846.88;4979915;28;20527;-73
2024/01/27 01:11:09;;;;;;;0.47;0.40;;;;;;;0.88;78.89;100856.38;4980896;28;20133;-74
2024/01/27 01:13:36;;;;;;;1.33;0.22;;;;;;;0.87;79.44;100862.34;4981767;28;20125;-74
2024/01/27 01:16:04;;;;;;;0.38;0.25;;;;;;;0.88;79.24;100868.34;4980486;28;20104;-74
2024/01/27 01:18:31;;;;;;;0.75;0.40;;;;;;;0.88;79.34;100882.13;4980302;28;20044;-74
2024/01/27 01:20:59;;;;;;;0.30;0.20;;;;;;;0.87;78.89;100880.38;4980239;28;20556;-74
2024/01/27 01:23:26;;;;;;;2.15;0.40;;;;;;;0.86;79.25;100878.63;4977836;28;20070;-74
2024/01/27 01:25:53;;;;;;;0.77;0.30;;;;;;;0.87;79.48;100893.25;4985204;28;20584;-74
2024/01/27 01:28:20;;;;;;;1.23;0.30;;;;;;;0.87;79.04;100903.56;4978186;28;20125;-74
2024/01/27 01:30:47;;;;;;;1.65;0.47;;;;;;;0.84;78.89;100908.66;4981791;28;20540;-74
2024/01/27 01:33:14;;;;;;;0.82;0.35;;;;;;;0.85;79.32;100915.56;4980994;28;20133;-74
2024/01/27 01:35:41;;;;;;;2.83;0.38;;;;;;;0.76;78.62;100898.19;4977758;28;20074;-75
2024/01/27 01:38:09;;;;;;;1.40;0.45;;;;;;;0.85;78.98;100925.84;4982144;28;20082;-73
2024/01/27 01:40:36;;;;;;;0.82;0.40;;;;;;;0.85;78.83;100930.13;4976432;28;20081;-75
2024/01/27 01:43:04;;;;;;;2.85;0.68;;;;;;;0.86;78.83;100934.44;4978691;28;20082;-74
2024/01/27 01:45:31;;;;;;;1.83;0.40;;;;;;;0.85;78.71;100946.47;4980984;28;20046;-74
2024/01/27 01:47:58;;;;;;;1.15;0.50;;;;;;;0.86;79.21;100943.03;4978037;28;20047;-74
2024/01/27 01:50:25;;;;;;;0.60;0.40;;;;;;;0.76;79.31;100931.66;4977307;28;20460;-73
2024/01/27 01:52:54;;;;;;;0.88;0.75;;;;;;;0.85;78.81;100950.72;4976645;28;20059;-75
2024/01/27 01:55:22;;;;;;;1.13;0.50;;;;;;;0.84;79.20;100955.00;4982611;28;20145;-74
2024/01/27 01:57:49;;;;;;;0.63;0.43;;;;;;;0.82;79.08;100955.81;4980184;28;20042;-74
2024/01/27 02:00:17;;;;;;;0.82;0.52;;;;;;;0.84;78.77;100965.31;4982097;28;20057;-75
2024/01/27 02:02:45;;;;;;;0.60;0.40;;;;;;;0.80;79.09;100958.38;4979750;28;20078;-75
2024/01/27 02:05:12;;;;;;;1.58;0.50;;;;;;;0.84;78.98;100970.47;4977938;28;20067;-76
2024/01/27 02:07:39;;;;;;;1.65;0.52;;;;;;;0.84;78.99;100974.75;4977798;28;20074;-75
2024/01/27 02:10:13;;;;;;;1.50;1.15;;;;;;;0.84;79.29;100991.06;4979901;28;20081;-75
2024/01/27 02:12:41;;;;;;;2.97;0.60;;;;;;;0.80;78.61;100990.16;4983522;28;20062;-73
2024/01/27 02:15:12;;;;;;;0.70;0.50;;;;;;;0.81;78.82;100996.16;4983389;28;20051;-74
2024/01/27 02:17:39;;;;;;;0.90;0.50;;;;;;;0.83;79.14;101003.94;4977602;28;20718;-73
2024/01/27 02:20:08;;;;;;;0.75;0.47;;;;;;;0.81;79.12;101001.31;4981560;28;20099;-73
2024/01/27 02:22:35;;;;;;;1.23;0.60;;;;;;;0.80;78.82;101008.19;4983691;28;20133;-73
2024/01/27 02:25:04;;;;;;;1.52;0.60;;;;;;;0.80;79.18;101017.63;4986078;28;20101;-73
2024/01/27 02:27:31;;;;;;;2.35;0.65;;;;;;;0.81;78.91;101037.38;4975469;28;20466;-73
2024/01/27 02:29:58;;;;;;;1.77;0.55;;;;;;;0.81;79.07;101034.78;4982044;28;20158;-73
2024/01/27 02:32:25;;;;;;;0.90;0.43;;;;;;;0.80;78.82;101044.22;4978669;28;20497;-73
2024/01/27 02:34:52;;;;;;;2.15;0.80;;;;;;;0.79;79.35;101055.38;4983158;28;20470;-73
2024/01/27 02:37:20;;;;;;;1.25;0.50;;;;;;;0.79;79.17;101057.97;4986840;28;20084;-72
2024/01/27 02:39:47;;;;;;;0.52;0.38;;;;;;;0.80;79.07;101069.13;4982546;28;20054;-73
2024/01/27 02:42:15;;;;;;;0.90;0.47;;;;;;;0.78;78.66;101069.06;4984657;28;20145;-72
2024/01/27 02:44:42;;;;;;;1.10;0.40;;;;;;;0.77;79.09;101069.94;4982178;28;20050;-74
2024/01/27 02:47:09;;;;;;;0.75;0.52;;;;;;;0.78;79.02;101074.22;4979429;28;20129;-74
2024/01/27 02:49:36;;;;;;;0.85;0.40;;;;;;;0.78;79.36;101076.81;4984699;28;20125;-73
2024/01/27 02:52:03;;;;;;;0.85;0.47;;;;;;;0.78;79.03;101078.53;4980973;28;20082;-73
2024/01/27 02:54:30;;;;;;;1.00;0.50;;;;;;;0.68;79.38;101072.31;4983221;28;20133;-73
2024/01/27 02:56:57;;;;;;;0.70;0.50;;;;;;;0.78;79.22;101084.53;4981886;28;20470;-73
2024/01/27 02:59:25;;;;;;;0.73;0.47;;;;;;;0.76;78.99;101088.78;4984807;28;20101;-73
2024/01/27 03:01:52;;;;;;;1.40;0.47;;;;;;;0.77;79.25;101087.97;4983003;28;20506;-73
2024/01/27 03:04:19;;;;;;;1.05;0.45;;;;;;;0.76;79.11;101093.06;4981112;28;20125;-73
2024/01/27 03:06:46;;;;;;;1.05;0.50;;;;;;;0.76;79.49;101095.63;4978720;28;20086;-72
2024/01/27 03:09:13;;;;;;;1.67;0.40;;;;;;;0.77;79.18;101105.13;4982302;28;20097;-73
2024/01/27 03:11:40;;;;;;;0.93;0.52;;;;;;;0.77;78.91;101108.56;4984397;28;20054;-75
2024/01/27 03:14:07;;;;;;;0.70;0.50;;;;;;;0.76;79.32;101109.38;4982517;28;20416;-75
2024/01/27 03:16:35;;;;;;;0.80;0.40;;;;;;;0.76;78.92;101118.81;4983075;28;20458;-75
2024/01/27 03:19:02;;;;;;;0.60;0.40;;;;;;;0.77;78.92;101123.16;4980881;28;20125;-75
2024/01/27 03:21:30;;;;;;;0.98;0.55;;;;;;;0.75;78.97;101129.97;4983265;28;20178;-74
2024/01/27 03:23:57;;;;;;;0.90;0.40;;;;;;;0.76;79.38;101136.84;4981876;28;20432;-73
2024/01/27 03:26:24;;;;;;;0.50;0.30;;;;;;;0.75;79.54;101141.13;4977472;28;20086;-73
2024/01/27 03:28:51;;;;;;;1.50;0.30;;;;;;;0.74;79.17;101149.69;4984571;28;20448;-74
2024/01/27 03:31:18;;;;;;;0.35;0.20;;;;;;;0.73;79.29;101158.25;4981890;28;20085;-75
2024/01/27 03:33:47;;;;;;;0.35;0.20;;;;;;;0.72;79.52;101156.50;4980231;28;20070;-74
2024/01/27 03:36:14;;;;;;;0.40;0.22;;;;;;;0.72;79.26;101160.81;4984683;28;20493;-74
2024/01/27 03:38:41;;;;;;;0.20;0.13;;;;;;;0.70;79.42;101167.59;4985484;28;20484;-74
2024/01/27 03:41:09;;;;;;;0.25;0.20;;;;;;;0.72;79.35;101187.41;4983196;28;20082;-74
2024/01/27 03:43:36;;;;;;;0.15;0.10;;;;;;;0.73;79.11;101194.28;4982129;28;20079;-73
2024/01/27 03:46:03;;;;;;;0.25;0.20;;;;;;;0.73;78.94;101201.16;4983171;28;20078;-73
2024/01/27 03:48:30;;;;;;;0.30;0.22;;;;;;;0.73;79.31;101219.19;4981114;28;20078;-74
2024/01/27 03:50:58;;;;;;;0.10;0.10;;;;;;;0.72;79.26;101231.19;4982559;28;20129;-73
2024/01/27 03:53:25;;;;;;;0.15;0.10;;;;;;;0.72;79.02;101245.78;4982289;28;20568;-74
2024/01/27 03:55:52;;;;;;;0.20;0.10;;;;;;;0.72;79.32;101266.38;4978006;28;20134;-74
2024/01/27 03:58:19;;;;;;;1.50;0.10;;;;;;;0.71;79.35;101260.38;4977496;28;20086;-73
2024/01/27 04:00:46;;;;;;;0.20;0.20;;;;;;;0.69;78.93;101263.75;4982950;28;20100;-73
2024/01/27 04:03:13;;;;;;;0.10;0.10;;;;;;;0.69;78.94;101272.34;4981252;28;20623;-73
2024/01/27 04:05:40;;;;;;;0.10;0.10;;;;;;;0.68;78.89;101273.19;4984781;28;20074;-73
2024/01/27 04:08:08;;;;;;;0.10;0.10;;;;;;;0.67;78.97;101266.25;4983632;28;20126;-74
2024/01/27 04:10:35;;;;;;;0.75;0.20;;;;;;;0.66;79.48;101274.84;4981860;28;20054;-73
2024/01/27 04:13:02;;;;;;;0.20;0.10;;;;;;;0.66;79.27;101279.97;4979760;28;20160;-73
2024/01/27 04:15:29;;;;;;;0.43;0.20;;;;;;;0.66;79.31;101298.00;4980338;28;20082;-74
2024/01/27 04:17:56;;;;;;;0.20;0.10;;;;;;;0.63;79.07;101303.06;4981801;28;20082;-73
2024/01/27 04:20:23;;;;;;;0.10;0.10;;;;;;;0.66;79.54;101305.72;4981165;28;20082;-73
2024/01/27 04:22:50;;;;;;;0.63;0.20;;;;;;;0.53;78.79;101285.63;4981301;28;20074;-73
2024/01/27 04:25:19;;;;;;;0.50;0.10;;;;;;;0.65;78.73;101311.72;4977921;28;20165;-72
2024/01/27 04:27:45;;;;;;;0.10;0.10;;;;;;;0.64;79.00;101327.13;4981013;28;20074;-73
2024/01/27 04:30:13;;;;;;;0.10;0.10;;;;;;;0.63;78.69;101322.81;4978671;28;20094;-72
2024/01/27 04:32:40;;;;;;;0.20;0.20;;;;;;;0.62;79.06;101336.50;4985993;28;20046;-81
2024/01/27 04:35:10;;;;;;;0.10;0.10;;;;;;;0.56;78.73;101334.63;4988926;28;20140;-81
2024/01/27 04:37:38;;;;;;;0.17;0.10;;;;;;;0.61;78.69;101342.50;5004612;28;20061;-80
2024/01/27 04:40:06;;;;;;;0.15;0.10;;;;;;;0.60;78.81;101354.50;4991966;28;20105;-80
2024/01/27 04:42:35;;;;;;;0.22;0.10;;;;;;;0.60;78.63;101366.50;4981155;28;20485;-81
2024/01/27 04:45:02;;;;;;;0.20;0.10;;;;;;;0.58;79.04;101369.91;4978734;28;20085;-81
2024/01/27 04:47:29;;;;;;;0.13;0.10;;;;;;;0.58;78.63;101377.63;4983158;28;20055;-80
2024/01/27 04:49:57;;;;;;;0.10;0.10;;;;;;;0.57;78.91;101381.03;4991465;28;20129;-81
2024/01/27 04:52:24;;;;;;;0.10;0.10;;;;;;;0.54;78.70;101382.66;4993833;28;20058;-80
2024/01/27 04:54:51;;;;;;;0.10;0.10;;;;;;;0.54;78.46;101387.81;4989650;28;20502;-80
2024/01/27 04:57:18;;;;;;;0.20;0.15;;;;;;;0.55;78.73;101384.41;4988617;28;20153;-81
2024/01/27 04:59:46;;;;;;;0.10;0.10;;;;;;;0.54;78.71;101396.41;4992713;28;20073;-81
2024/01/27 05:02:13;;;;;;;0.20;0.20;;;;;;;0.50;78.47;101393.69;4991535;28;20506;-80
2024/01/27 05:04:40;;;;;;;0.10;0.08;;;;;;;0.47;78.03;101399.63;4986225;28;20521;-81
2024/01/27 05:07:07;;;;;;;0.10;0.10;;;;;;;0.52;78.33;101410.94;4986463;28;20470;-80
2024/01/27 05:09:35;;;;;;;0.25;0.10;;;;;;;0.52;78.41;101425.50;4987775;28;20504;-80
2024/01/27 05:12:03;;;;;;;0.20;0.10;;;;;;;0.50;78.68;101417.72;4988453;28;20047;-80
2024/01/27 05:14:30;;;;;;;0.10;0.10;;;;;;;0.50;78.71;101422.88;4984457;28;20086;-80
2024/01/27 05:16:58;;;;;;;0.10;0.10;;;;;;;0.51;78.08;101440.09;4977010;28;20074;-81
2024/01/27 05:19:25;;;;;;;0.10;0.10;;;;;;;0.49;78.60;101426.28;4979751;28;20078;-81
2024/01/27 05:21:51;;;;;;;0.20;0.20;;;;;;;0.49;78.60;101425.41;4983343;28;20540;-81
2024/01/27 05:24:18;;;;;;;0.43;0.20;;;;;;;0.48;78.34;101427.13;4981942;28;20070;-81
2024/01/27 05:26:45;;;;;;;0.20;0.17;;;;;;;0.49;78.68;101441.72;4983171;28;20070;-81
2024/01/27 05:29:12;;;;;;;0.17;0.17;;;;;;;0.46;78.33;101445.94;4980765;28;20062;-81
2024/01/27 05:31:39;;;;;;;0.20;0.13;;;;;;;0.48;78.14;101454.53;4978635;28;20074;-81
2024/01/27 05:34:07;;;;;;;0.20;0.20;;;;;;;0.40;78.80;101446.63;4985751;28;20101;-81
2024/01/27 05:36:34;;;;;;;0.20;0.10;;;;;;;0.46;78.61;101462.25;4989104;28;20545;-82
2024/01/27 05:39:03;;;;;;;0.20;0.20;;;;;;;0.48;78.43;101464.84;4985271;28;20508;-81
2024/01/27 05:41:30;;;;;;;0.20;0.20;;;;;;;0.47;78.47;101463.09;4988928;28;20683;-74
2024/01/27 05:43:57;;;;;;;0.82;0.20;;;;;;;0.47;78.62;101476.84;4979685;28;20133;-74
2024/01/27 05:46:25;;;;;;;0.30;0.20;;;;;;;0.47;78.35;101475.97;4979970;28;20514;-74
2024/01/27 05:48:53;;;;;;;0.20;0.13;;;;;;;0.46;78.64;101481.97;4984181;28;20420;-74
2024/01/27 05:51:23;;;;;;;0.60;0.20;;;;;;;0.46;78.32;101492.28;4982549;28;20105;-75
2024/01/27 05:53:50;;;;;;;0.52;0.20;;;;;;;0.44;78.67;101499.06;4986316;28;20061;-74
2024/01/27 05:56:17;;;;;;;0.30;0.20;;;;;;;0.43;78.44;101513.66;4982157;28;20129;-74
2024/01/27 05:58:44;;;;;;;0.38;0.30;;;;;;;0.38;78.01;101510.06;4984418;28;20042;-74
2024/01/27 06:01:11;;;;;;;1.40;0.22;;;;;;;0.41;78.14;101525.59;4986904;28;20773;-75
2024/01/27 06:03:38;;;;;;;1.95;0.20;;;;;;;0.42;78.34;101529.03;4986795;28;20136;-74
2024/01/27 06:06:05;;;;;;;0.50;0.25;;;;;;;0.40;78.05;101530.72;4986029;28;20078;-75
2024/01/27 06:08:34;;;;;;;0.65;0.20;;;;;;;0.40;78.36;101533.28;4981778;28;20074;-74
2024/01/27 06:11:01;;;;;;;0.32;0.30;;;;;;;0.38;78.49;101540.94;4982137;28;20138;-74
2024/01/27 06:13:27;;;;;;;1.42;0.20;;;;;;;0.37;78.40;101539.19;4985028;28;20105;-73
2024/01/27 06:15:54;;;;;;;0.30;0.20;;;;;;;0.37;78.00;101541.78;4981291;28;20185;-74
2024/01/27 06:18:21;;;;;;;0.22;0.22;;;;;;;0.35;78.25;101552.00;4984489;28;20078;-73
2024/01/27 06:20:48;;;;;;;0.22;0.20;;;;;;;0.36;77.81;101555.44;4983169;28;20685;-74
2024/01/27 06:23:15;;;;;;;1.25;0.38;;;;;;;0.36;77.78;101563.19;4982657;28;20077;-75
2024/01/27 06:25:44;;;;;;;0.90;0.20;;;;;;;0.34;77.77;101570.00;4984095;28;20117;-74
2024/01/27 06:28:11;;;;;;;0.40;0.30;;;;;;;0.33;77.99;101569.09;4984167;28;20078;-74
2024/01/27 06:30:38;;;;;;;0.38;0.30;;;;;;;0.32;77.97;101572.50;4984749;28;20149;-72
2024/01/27 06:33:05;;;;;;;0.93;0.30;;;;;;;0.32;77.57;101566.50;4982546;28;20084;-74
2024/01/27 06:35:32;;;;;;;0.30;0.20;;;;;;;0.29;77.48;101566.41;4977950;28;20133;-74
2024/01/27 06:37:59;;;;;;;0.40;0.20;;;;;;;0.28;77.90;101570.69;4983199;28;21597;-73
2024/01/27 06:40:26;;;;;;;0.28;0.20;;;;;;;0.25;78.24;101573.16;4982730;28;20050;-76
2024/01/27 06:42:55;;;;;;;0.22;0.10;;;;;;;0.26;77.88;101576.59;4985951;28;20476;-81
2024/01/27 06:45:22;;;;;;;0.22;0.20;;;;;;;0.25;77.49;101574.81;4988272;28;20046;-81
2024/01/27 06:47:49;;;;;;;1.13;0.20;;;;;;;0.23;77.67;101581.66;4988078;28;20093;-81
2024/01/27 06:50:19;;;;;;;0.60;0.10;;;;;;;0.19;77.72;101587.50;4992470;28;20089;-80
2024/01/27 06:52:45;;;;;;;0.17;0.10;;;;;;;0.21;77.51;101603.88;4985144;28;20089;-74
2024/01/27 06:55:13;;;;;;;0.20;0.10;;;;;;;0.19;77.52;101605.50;4983140;28;20050;-74
2024/01/27 06:57:41;;;;;;;0.20;0.10;;;;;;;0.12;78.02;101604.44;4954122;28;20151;-74
2024/01/27 07:00:13;;;;;;;0.30;0.20;;;;;;;0.16;77.63;101613.13;4984026;28;20497;-73
2024/01/27 07:02:41;;;;;;;0.35;0.10;;;;;;;0.12;77.75;101615.59;4980775;28;20217;-73
2024/01/27 07:05:08;;;;;;;0.30;0.30;;;;;;;0.12;77.45;101613.03;4984719;28;20054;-73
2024/01/27 07:07:36;;;;;;;0.30;0.30;;;;;;;0.08;77.68;101618.91;4983934;28;20573;-74
2024/01/27 07:10:03;;;;;;;0.10;0.10;;;;;;;0.08;77.85;101623.16;4984656;28;20097;-73
2024/01/27 07:12:30;;;;;;;0.82;0.20;;;;;;;0.05;77.42;101618.81;4982408;28;20098;-74
2024/01/27 07:14:59;;;;;;;0.10;0.10;;;;;;;0.04;77.62;101624.75;4980622;28;20077;-73
2024/01/27 07:17:27;;;;;;;0.43;0.13;;;;;;;0.00;77.27;101633.22;4981350;28;20043;-74
2024/01/27 07:19:55;;;;;;;0.40;0.20;;;;;;;0.01;77.28;101639.22;4980159;28;20079;-73
2024/01/27 07:22:22;;;;;;;0.88;0.20;;;;;;;-0.06;77.74;101638.16;4981223;28;20060;-73
2024/01/27 07:24:51;;;;;;;0.68;0.10;;;;;;;-0.05;77.50;101647.59;4983345;28;20085;-73
2024/01/27 07:27:18;;;;;;;0.20;0.20;;;;;;;-0.05;77.69;101657.91;4987628;28;20060;-73
2024/01/27 07:29:45;;;;;;;0.82;0.20;;;;;;;-0.06;76.95;101666.44;4981446;28;20059;-73
2024/01/27 07:32:13;;;;;;;0.77;0.10;;;;;;;-0.09;77.16;101671.47;4979992;28;20074;-74
2024/01/27 07:34:43;;;;;;;0.10;0.10;;;;;;;-0.12;77.76;101671.34;4983609;28;20842;-73
2024/01/27 07:37:11;;;;;;;0.20;0.20;;;;;;;-0.13;77.32;101674.75;4982294;28;20141;-73
2024/01/27 07:39:38;;;;;;;0.17;0.10;;;;;;;-0.16;76.84;101683.22;4979698;28;20080;-73
2024/01/27 07:42:05;;;;;;;0.20;0.10;;;;;;;-0.16;77.62;101679.78;4980148;28;20917;-73
2024/01/27 07:44:32;;;;;;;2.45;0.20;;;;;;;-0.20;76.84;101678.81;4981151;28;20077;-73
2024/01/27 07:46:59;;;;;;;0.55;0.20;;;;;;;-0.22;77.21;101682.16;4981697;28;20141;-73
2024/01/27 07:49:26;;;;;;;1.10;0.20;;;;;;;-0.23;77.06;101682.94;4981345;28;20088;-73
2024/01/27 07:51:55;;;;;;;0.30;0.20;;;;;;;-0.25;76.89;101682.03;4983860;28;20085;-72
2024/01/27 07:54:22;;;;;;;0.88;0.20;;;;;;;-0.27;76.90;101697.41;4983487;28;20057;-73
2024/01/27 07:56:49;;;;;;;3.67;0.50;;;;;;;-0.29;77.55;101708.44;4979113;28;20129;-73
2024/01/27 07:59:16;;;;;;;0.32;0.30;;;;;;;-0.30;77.15;101722.13;4976689;28;20073;-73
2024/01/27 08:01:43;;;;;;;0.52;0.30;;;;;;;-0.32;76.93;101732.34;4981039;28;20082;-73
2024/01/27 08:04:10;;;;;;;0.30;0.20;;;;;;;-0.34;77.46;101727.16;4980515;28;20125;-72
2024/01/27 08:06:47;;;;;;;1.15;0.20;;;;;;;-0.35;76.99;101737.38;4981323;28;20725;-72
2024/01/27 08:09:16;;;;;;;0.93;0.30;;;;;;;-0.39;77.13;101751.84;4980813;28;20078;-73
2024/01/27 08:11:43;;;;;;;1.65;0.30;;;;;;;-0.40;76.77;101752.66;4977898;28;20089;-71
2024/01/27 08:14:10;;;;;;;0.60;0.28;;;;;;;-0.42;77.07;101749.16;4975555;28;20117;-72
2024/01/27 08:16:37;;;;;;;2.58;0.38;;;;;;;-0.43;77.07;101767.06;4977511;28;20125;-73
2024/01/27 08:19:04;;;;;;;5.70;0.57;;;;;;;-0.45;77.19;101769.59;4977033;28;20081;-73
2024/01/27 08:21:31;;;;;;;0.25;0.20;;;;;;;-0.46;77.30;101782.38;4977530;28;20057;-73
2024/01/27 08:23:58;;;;;;;1.15;0.25;;;;;;;-0.47;76.85;101784.06;4983783;28;20493;-73
2024/01/27 08:26:27;;;;;;;2.28;0.20;;;;;;;-0.49;77.01;101782.25;4977542;28;20051;-74
2024/01/27 08:28:56;;;;;;;0.65;0.25;;;;;;;-0.49;76.86;101800.25;4982753;28;20085;-72
2024/01/27 08:31:23;;;;;;;0.43;0.20;;;;;;;-0.53;76.81;101806.97;4976542;28;20129;-71
2024/01/27 08:33:50;;;;;;;2.92;0.30;;;;;;;-0.52;77.29;101807.84;4980138;28;20077;-70
2024/01/27 08:36:17;;;;;;;0.70;0.20;;;;;;;-0.55;77.10;101803.47;4982547;28;20078;-70
2024/01/27 08:38:44;;;;;;;0.85;0.38;;;;;;;-0.57;77.62;101811.13;4977696;28;20121;-70
2024/01/27 08:41:11;;;;;;;3.85;0.68;;;;;;;-0.58;77.75;101811.06;4981919;28;20114;-71
2024/01/27 08:43:40;;;;;;;1.42;0.40;;;;;;;-0.59;77.42;101817.91;4981097;28;20101;-71
2024/01/27 08:46:11;;;;;;;0.93;0.60;;;;;;;-0.60;77.26;101838.41;4982194;28;20059;-70
2024/01/27 08:48:38;;;;;;;0.60;0.30;;;;;;;-0.61;77.33;101836.66;4979364;28;20054;-69
2024/01/27 08:51:05;;;;;;;1.27;0.40;;;;;;;-0.64;77.35;101845.09;4980079;28;20135;-70
2024/01/27 08:53:32;;;;;;;1.67;0.43;;;;;;;-0.64;77.17;101837.41;4978677;28;20038;-69
2024/01/27 08:55:59;;;;;;;2.20;0.93;;;;;;;-0.64;77.23;101847.69;4981259;28;20923;-69
2024/01/27 08:58:26;;;;;;;3.80;0.30;;;;;;;-0.65;77.21;101850.19;4984801;28;20042;-69
2024/01/27 09:00:54;;;;;;;4.57;0.52;;;;;;;-0.65;77.22;101851.06;4984493;28;20077;-83
2024/01/27 09:03:21;;;;;;;6.00;0.30;;;;;;;-0.65;77.44;101851.06;4988209;28;20354;-84
2024/01/27 09:05:48;;;;;;;2.05;0.50;;;;;;;-0.65;77.28;101857.91;4990948;28;20081;-82
2024/01/27 09:08:16;;;;;;;2.22;0.40;;;;;;;-0.64;77.54;101862.22;4985768;28;20050;-81
2024/01/27 09:10:43;;;;;;;1.75;0.82;;;;;;;-0.64;77.23;101865.66;4981607;28;20097;-71
2024/01/27 09:13:10;;;;;;;3.38;0.40;;;;;;;-0.64;77.06;101864.78;4977958;28;20100;-72
2024/01/27 09:15:37;;;;;;;4.95;0.40;;;;;;;-0.63;77.45;101869.09;4976325;28;20568;-72
2024/01/27 09:18:06;;;;;;;0.85;0.30;;;;;;;-0.62;77.06;101876.91;4976073;28;20125;-72
2024/01/27 09:20:33;;;;;;;0.85;0.35;;;;;;;-0.62;77.38;101869.19;4977949;28;20047;-71
2024/01/27 09:23:00;;;;;;;3.40;0.38;;;;;;;-0.61;77.05;101875.19;4975693;28;20074;-71
2024/01/27 09:25:27;;;;;;;3.80;0.30;;;;;;;-0.62;77.06;101871.75;4982267;28;20050;-72
2024/01/27 09:27:55;;;;;;;3.53;0.52;;;;;;;-0.60;76.84;101876.97;4980888;28;20062;-71
2024/01/27 09:30:22;;;;;;;4.70;0.80;;;;;;;-0.60;77.05;101884.69;4973015;28;20046;-71
2024/01/27 09:32:49;;;;;;;7.25;0.85;;;;;;;-0.59;77.45;101881.28;4978426;28;20047;-71
2024/01/27 09:35:17;;;;;;;3.42;0.75;;;;;;;-0.58;77.51;101880.47;4978899;28;20547;-71
2024/01/27 09:37:46;;;;;;;4.53;0.68;;;;;;;-0.56;76.83;101883.97;4978214;28;20129;-71
2024/01/27 09:40:13;;;;;;;1.55;0.47;;;;;;;-0.55;77.13;101883.16;4978668;28;20831;-72
2024/01/27 09:42:42;;;;;;;7.85;0.82;;;;;;;-0.56;77.03;101890.00;4978142;28;20082;-73
2024/01/27 09:45:10;;;;;;;5.90;1.70;;;;;;;-0.54;77.02;101882.34;4977117;28;20077;-71
2024/01/27 09:47:38;;;;;;;5.70;0.40;;;;;;;-0.53;76.68;101884.09;4978784;28;20130;-72
2024/01/27 09:50:07;;;;;;;4.47;0.70;;;;;;;-0.52;77.42;101892.69;4977000;28;20150;-73
2024/01/27 09:52:35;;;;;;;5.18;0.40;;;;;;;-0.52;77.21;101896.13;4978598;28;20085;-73
2024/01/27 09:55:02;;;;;;;4.93;0.80;;;;;;;-0.50;77.11;101899.66;4974982;28;20458;-73
2024/01/27 09:57:34;;;;;;;4.85;0.57;;;;;;;-0.52;76.86;101890.97;4976610;28;20062;-73
2024/01/27 10:00:02;;;;;;;5.07;0.65;;;;;;;-0.47;76.69;101898.91;4980986;28;20113;-74
2024/01/27 10:02:30;;;;;;;8.27;0.63;;;;;;;-0.48;76.98;101898.03;4976034;28;20154;-73
2024/01/27 10:04:57;;;;;;;3.90;0.68;;;;;;;-0.46;77.04;101898.97;4976689;28;20482;-72
2024/01/27 10:07:25;;;;;;;10.65;1.05;;;;;;;-0.45;76.94;101908.44;4973628;28;20055;-73
2024/01/27 10:09:54;;;;;;;4.25;0.60;;;;;;;-0.44;77.25;101901.59;4979936;28;20121;-73
2024/01/27 10:12:23;;;;;;;3.35;0.60;;;;;;;-0.43;77.08;101914.53;4985237;28;20077;-85
2024/01/27 10:14:51;;;;;;;5.28;0.60;;;;;;;-0.41;76.77;101920.59;4994400;28;20572;-85
2024/01/27 10:17:23;;;;;;;2.90;0.52;;;;;;;-0.40;77.06;101916.34;4988057;28;20038;-85
2024/01/27 10:20:01;;;;;;;8.20;0.80;;;;;;;-0.38;77.29;101919.84;4986063;28;20069;-86
2024/01/27 10:22:28;;;;;;;4.72;0.70;;;;;;;-0.38;76.91;101925.84;4979219;28;20047;-75
2024/01/27 10:24:56;;;;;;;1.63;0.43;;;;;;;-0.37;77.34;101930.19;4977131;28;20074;-74
2024/01/27 10:27:23;;;;;;;2.58;0.40;;;;;;;-0.36;77.03;101919.09;4980956;28;20054;-75
2024/01/27 10:29:54;;;;;;;4.07;0.50;;;;;;;-0.35;76.92;101920.84;4981522;28;20138;-74
2024/01/27 10:32:23;;;;;;;5.85;0.70;;;;;;;-0.33;77.21;101924.34;4979004;28;20053;-74
2024/01/27 10:34:51;;;;;;;8.50;2.33;;;;;;;-0.32;77.46;101920.06;4982630;28;20141;-75
2024/01/27 10:37:25;;;;;;;4.43;1.05;;;;;;;-0.30;77.46;101930.44;4981364;28;20046;-73
2024/01/27 10:40:03;;;;;;;6.57;0.70;;;;;;;-0.29;77.03;101930.47;4979337;28;20039;-74
2024/01/27 10:42:31;;;;;;;1.33;0.32;;;;;;;-0.30;77.15;101933.00;4981123;28;20389;-73
2024/01/27 10:45:00;;;;;;;3.10;0.80;;;;;;;-0.26;77.01;101937.44;4982965;28;20750;-74
2024/01/27 10:47:29;;;;;;;5.88;0.30;;;;;;;-0.24;76.82;101940.97;4987731;28;20054;-74
2024/01/27 10:49:57;;;;;;;2.70;0.50;;;;;;;-0.23;76.83;101953.00;4982077;28;20078;-76
2024/01/27 10:52:28;;;;;;;6.10;0.47;;;;;;;-0.23;76.71;101953.91;4981223;28;20047;-74
2024/01/27 10:55:00;;;;;;;4.85;0.40;;;;;;;-0.21;77.29;101948.81;4985305;28;20047;-74
2024/01/27 10:57:30;;;;;;;3.47;0.20;;;;;;;-0.19;76.91;101958.34;4980127;28;20050;-74
2024/01/27 10:59:58;;;;;;;2.90;0.80;;;;;;;-0.17;76.98;101953.28;4984933;28;20073;-73
2024/01/27 11:02:25;;;;;;;10.25;0.32;;;;;;;-0.17;77.18;101953.28;4981954;28;20559;-74
2024/01/27 11:04:54;;;;;;;8.75;0.40;;;;;;;-0.19;77.15;101950.63;4981081;28;20049;-73
2024/01/27 11:07:23;;;;;;;1.92;0.30;;;;;;;-0.15;76.67;101949.94;4982425;28;20061;-73
2024/01/27 11:09:52;;;;;;;3.08;0.20;;;;;;;-0.15;77.06;101949.94;4980612;28;20054;-73
2024/01/27 11:12:20;;;;;;;2.58;0.20;;;;;;;-0.13;76.69;101957.72;4982333;28;20046;-73
2024/01/27 11:14:49;;;;;;;4.47;0.20;;;;;;;-0.23;76.66;101947.84;4981054;28;20047;-73
2024/01/27 11:17:16;;;;;;;2.58;0.35;;;;;;;-0.16;76.96;101960.16;4978564;28;20177;-73
2024/01/27 11:19:43;;;;;;;1.70;0.30;;;;;;;-0.12;76.72;101962.03;4981096;28;20077;-73
2024/01/27 11:22:26;;;;;;;2.92;0.22;;;;;;;-0.08;76.70;101969.06;4980740;28;20104;-71
2024/01/27 11:24:53;;;;;;;2.95;0.35;;;;;;;-0.08;76.32;101981.06;4978308;28;20046;-70
2024/01/27 11:27:28;;;;;;;1.23;0.25;;;;;;;-0.07;76.16;101975.09;4979014;28;20526;-70
2024/01/27 11:29:57;;;;;;;5.57;0.28;;;;;;;-0.09;76.43;101980.16;4979088;28;20133;-70
2024/01/27 11:32:24;;;;;;;3.85;0.45;;;;;;;-0.04;76.94;101988.06;4979201;28;20529;-76